Terminal Aerodrome Forecast
Issued by NWS Green Bay, WI

Home | Current Version | Previous Version | Text Only | Print | Product List | Glossary Off
Versions: 1 2 3 4 5 6 7 8 9 10 11 12 13 14 15 16 17 18 19 20 21 22 23 24 25 26 27 28 29 30 31 32 33 34 35 36 37 38 39 40 41 42

000
FTUS43 KGRB 261122
TAFGRB
TAF
KGRB 261122Z 2612/2712 23005KT P6SM SCT140 SCT250
     FM261400 23005KT P6SM SKC
     FM261800 22008KT P6SM SCT060 BKN120
      TEMPO 2620/2624 5SM -TSRA BR BKN040CB
     FM270000 18005KT P6SM VCSH SCT040 BKN080
     FM270600 VRB03KT P6SM SCT080 SCT250
      TEMPO 2708/2712 4SM BR=

USA.gov is the U.S. government's official web portal to all federal, state and local government web resources and services.